createdAt,value
2022-10-24T00:02:14.733Z,16.32
2022-10-24T00:06:16.968Z,16.32
2022-10-24T00:10:19.833Z,16.32
2022-10-24T00:14:21.404Z,16.32
2022-10-24T00:18:22.918Z,16.30
2022-10-24T00:22:24.888Z,16.30
2022-10-24T00:26:26.437Z,16.27
2022-10-24T00:30:28.185Z,16.30
2022-10-24T00:34:30.099Z,16.27
2022-10-24T00:38:31.605Z,16.29
2022-10-24T00:42:33.150Z,16.27
2022-10-24T00:46:34.764Z,16.29
2022-10-24T00:50:36.347Z,16.29
2022-10-24T00:54:39.698Z,16.29
2022-10-24T00:58:43.526Z,16.29
2022-10-24T01:02:46.017Z,16.29
2022-10-24T01:06:54.903Z,16.26
2022-10-24T01:11:08.772Z,16.25
2022-10-24T01:15:22.681Z,16.26
2022-10-24T01:19:50.864Z,16.26
2022-10-24T01:24:05.304Z,16.23
2022-10-24T01:28:15.645Z,16.25
2022-10-24T01:32:21.266Z,16.22
2022-10-24T01:36:35.980Z,16.25
2022-10-24T01:41:07.267Z,16.25
2022-10-24T01:45:13.040Z,16.30
2022-10-24T01:49:20.953Z,16.29
2022-10-24T01:53:25.115Z,16.29
2022-10-24T01:57:31.600Z,16.29
2022-10-24T02:01:35.186Z,16.29
2022-10-24T02:05:42.356Z,16.29
2022-10-24T02:09:47.051Z,16.32
2022-10-24T02:13:57.800Z,16.33
2022-10-24T02:17:59.858Z,16.33
2022-10-24T02:22:07.400Z,16.33
2022-10-24T02:26:19.323Z,16.32
2022-10-24T02:30:24.383Z,16.27
2022-10-24T02:34:32.092Z,16.25
2022-10-24T02:38:37.961Z,16.18
2022-10-24T02:42:42.059Z,16.18
2022-10-24T02:46:46.266Z,16.16
2022-10-24T02:50:48.932Z,16.14
2022-10-24T02:54:51.695Z,16.14
2022-10-24T02:58:53.213Z,16.14
2022-10-24T03:02:54.768Z,16.14
2022-10-24T03:06:56.282Z,16.16
2022-10-24T03:10:57.865Z,16.18
2022-10-24T03:14:59.352Z,16.22
2022-10-24T03:19:00.974Z,16.22
2022-10-24T03:23:02.716Z,16.23
2022-10-24T03:27:04.404Z,16.22
2022-10-24T03:31:06.833Z,16.18
2022-10-24T03:35:11.713Z,16.22
2022-10-24T03:39:15.612Z,16.18
2022-10-24T03:43:17.927Z,16.17
2022-10-24T03:47:19.694Z,16.14
2022-10-24T03:51:21.183Z,16.11
2022-10-24T03:55:23.043Z,16.10
2022-10-24T03:59:24.536Z,16.10
2022-10-24T04:03:27.170Z,16.08
2022-10-24T04:07:28.727Z,16.10
2022-10-24T04:11:30.294Z,16.13
2022-10-24T04:15:32.102Z,16.13
2022-10-24T04:19:33.759Z,16.16
2022-10-24T04:23:40.820Z,16.18
2022-10-24T04:27:42.485Z,16.23
2022-10-24T04:31:44.007Z,16.22
2022-10-24T04:35:49.843Z,16.17
2022-10-24T04:39:53.579Z,16.11
2022-10-24T04:43:55.182Z,16.08
2022-10-24T04:47:56.852Z,16.07
2022-10-24T04:51:58.362Z,16.06
2022-10-24T04:55:59.898Z,16.07
2022-10-24T05:00:01.407Z,16.01
2022-10-24T05:04:02.977Z,15.96
2022-10-24T05:08:04.606Z,15.96
2022-10-24T05:12:06.317Z,15.92
2022-10-24T05:16:07.967Z,15.93
2022-10-24T05:20:10.375Z,15.96
2022-10-24T05:24:11.884Z,15.92
2022-10-24T05:28:13.421Z,15.93
2022-10-24T05:32:14.944Z,15.96
2022-10-24T05:36:16.508Z,16.01
2022-10-24T05:40:18.056Z,16.07
2022-10-24T05:44:19.710Z,16.16
2022-10-24T05:48:21.213Z,16.34
2022-10-24T05:52:22.735Z,16.42
2022-10-24T05:56:25.068Z,16.42
2022-10-24T06:00:26.828Z,16.42
2022-10-24T06:04:28.359Z,16.44
2022-10-24T06:08:29.858Z,16.37
2022-10-24T06:12:31.668Z,16.33
2022-10-24T06:16:34.376Z,16.30
2022-10-24T06:20:37.390Z,16.30
2022-10-24T06:24:38.932Z,16.27
2022-10-24T06:28:41.189Z,16.27
2022-10-24T06:32:44.556Z,16.26
2022-10-24T06:36:46.414Z,16.27
2022-10-24T06:40:47.942Z,16.32
2022-10-24T06:44:51.227Z,16.33
2022-10-24T06:48:56.207Z,16.37
2022-10-24T06:52:57.743Z,16.42
2022-10-24T06:56:59.385Z,16.47
2022-10-24T07:01:08.743Z,16.51
2022-10-24T07:05:12.772Z,16.54
2022-10-24T07:09:15.618Z,16.59
2022-10-24T07:13:17.350Z,16.62
2022-10-24T07:17:19.689Z,16.65
2022-10-24T07:21:25.990Z,16.67
2022-10-24T07:25:27.516Z,16.70
2022-10-24T07:29:29.334Z,16.70
2022-10-24T07:33:31.000Z,16.72
2022-10-24T07:37:32.518Z,16.75
2022-10-24T07:41:37.575Z,16.77
2022-10-24T07:45:40.296Z,16.81
2022-10-24T07:49:41.974Z,16.82
2022-10-24T07:53:43.654Z,16.88
2022-10-24T07:57:45.469Z,16.95
2022-10-24T08:01:47.191Z,16.99
2022-10-24T08:05:48.862Z,17.03
2022-10-24T08:09:51.251Z,17.05
2022-10-24T08:13:55.032Z,17.10
2022-10-24T08:17:57.153Z,17.17
2022-10-24T08:21:58.920Z,17.21
2022-10-24T08:26:00.765Z,17.24
2022-10-24T08:30:02.525Z,17.30
2022-10-24T08:34:06.095Z,17.33
2022-10-24T08:38:07.782Z,17.35
2022-10-24T08:42:13.779Z,17.38
2022-10-24T08:46:37.040Z,17.42
2022-10-24T08:50:42.704Z,17.46
2022-10-24T08:54:46.324Z,17.53
2022-10-24T08:58:49.059Z,17.54
2022-10-24T09:02:56.899Z,17.58
2022-10-24T09:06:59.268Z,17.66
2022-10-24T09:11:03.124Z,17.76
2022-10-24T09:15:13.624Z,17.83
2022-10-24T09:19:18.436Z,17.89
2022-10-24T09:23:23.861Z,17.95
2022-10-24T09:27:29.443Z,17.98
2022-10-24T09:31:31.008Z,17.96
2022-10-24T09:35:35.366Z,18.04
2022-10-24T09:39:36.882Z,18.16
2022-10-24T09:43:44.522Z,18.23
2022-10-24T09:47:46.392Z,18.29
2022-10-24T09:51:59.618Z,18.35
2022-10-24T09:56:09.166Z,18.38
2022-10-24T10:00:21.512Z,18.47
2022-10-24T10:04:22.993Z,18.49
2022-10-24T10:08:28.579Z,18.51
2022-10-24T10:12:33.115Z,18.51
2022-10-24T10:16:38.387Z,18.50
2022-10-24T10:20:42.483Z,18.53
2022-10-24T10:24:45.437Z,18.53
2022-10-24T10:28:47.015Z,18.50
2022-10-24T10:32:57.514Z,18.46
2022-10-24T10:37:05.024Z,18.38
2022-10-24T10:41:13.175Z,18.38
2022-10-24T10:45:47.093Z,18.46
2022-10-24T10:49:54.434Z,18.60
2022-10-24T10:54:18.783Z,18.72
2022-10-24T10:58:29.164Z,18.86
2022-10-24T11:02:52.132Z,19.01
2022-10-24T11:07:17.450Z,19.32
2022-10-24T11:11:32.025Z,19.43
2022-10-24T11:15:40.137Z,19.42
2022-10-24T11:19:48.628Z,19.49
2022-10-24T11:23:55.451Z,19.58
2022-10-24T11:28:28.792Z,19.70
2022-10-24T11:32:42.765Z,19.76
2022-10-24T11:37:04.556Z,19.83
2022-10-24T11:41:34.316Z,19.97
2022-10-24T11:45:53.485Z,20.07
2022-10-24T11:50:04.722Z,20.13
2022-10-24T11:54:16.015Z,20.22
2022-10-24T11:58:21.868Z,20.31
2022-10-24T12:02:52.847Z,20.41
2022-10-24T12:07:06.603Z,20.50
2022-10-24T12:11:16.265Z,20.54
2022-10-24T12:15:43.567Z,20.57
2022-10-24T12:19:45.946Z,20.64
2022-10-24T12:23:58.765Z,20.90
2022-10-24T12:28:03.757Z,21.09
2022-10-24T12:32:30.838Z,21.21
2022-10-24T12:37:02.428Z,21.24
2022-10-24T12:41:31.716Z,21.19
2022-10-24T12:45:33.328Z,21.21
2022-10-24T12:49:34.857Z,21.24
2022-10-24T12:54:05.225Z,21.26
2022-10-24T12:58:35.435Z,21.18
2022-10-24T13:02:36.992Z,21.16
2022-10-24T13:06:58.445Z,21.33
2022-10-24T13:11:29.057Z,21.46
2022-10-24T13:15:40.935Z,21.45
2022-10-24T13:19:42.773Z,21.33
2022-10-24T13:23:46.669Z,21.36
2022-10-24T13:28:20.442Z,21.26
2022-10-24T13:32:23.460Z,21.12
2022-10-24T13:36:28.629Z,21.11
2022-10-24T13:40:33.169Z,21.15
2022-10-24T13:44:48.344Z,21.18
2022-10-24T13:48:52.488Z,21.19
2022-10-24T13:52:59.207Z,21.24
2022-10-24T13:57:02.268Z,21.37
2022-10-24T14:01:07.200Z,21.68
2022-10-24T14:05:19.306Z,21.94
2022-10-24T14:09:20.819Z,22.17
2022-10-24T14:13:25.291Z,22.15
2022-10-24T14:17:30.739Z,21.81
2022-10-24T14:21:40.076Z,21.70
2022-10-24T14:25:41.703Z,21.73
2022-10-24T14:30:01.591Z,21.64
2022-10-24T14:34:06.073Z,21.43
2022-10-24T14:38:09.839Z,21.28
2022-10-24T14:42:18.303Z,21.13
2022-10-24T14:46:37.759Z,21.05
2022-10-24T14:50:41.627Z,20.93
2022-10-24T14:54:52.148Z,20.93
2022-10-24T14:58:56.682Z,20.93
2022-10-24T15:02:58.969Z,20.88
2022-10-24T15:07:14.259Z,20.83
2022-10-24T15:11:21.935Z,20.76
2022-10-24T15:15:34.538Z,20.71
2022-10-24T15:19:38.527Z,20.66
2022-10-24T15:23:55.589Z,20.56
2022-10-24T15:28:01.500Z,20.33
2022-10-24T15:32:09.331Z,20.17
2022-10-24T15:36:24.064Z,20.02
2022-10-24T15:40:32.857Z,19.86
2022-10-24T15:44:35.465Z,19.75
2022-10-24T15:48:38.813Z,19.68
2022-10-24T15:52:40.328Z,19.65
2022-10-24T15:56:41.836Z,19.58
2022-10-24T16:00:43.803Z,19.53
2022-10-24T16:04:45.484Z,19.47
2022-10-24T16:08:47.187Z,19.42
2022-10-24T16:12:50.003Z,19.35
2022-10-24T16:16:53.700Z,19.31
2022-10-24T16:20:57.764Z,19.24
2022-10-24T16:24:59.289Z,19.20
2022-10-24T16:29:01.071Z,19.13
2022-10-24T16:33:03.231Z,19.07
2022-10-24T16:37:05.037Z,19.01
2022-10-24T16:41:06.593Z,18.96
2022-10-24T16:45:09.280Z,18.90
2022-10-24T16:49:10.883Z,18.89
2022-10-24T16:53:14.362Z,18.86
2022-10-24T16:57:16.514Z,18.83
2022-10-24T17:01:18.455Z,18.79
2022-10-24T17:05:23.290Z,18.75
2022-10-24T17:09:24.839Z,18.74
2022-10-24T17:13:26.513Z,18.72
2022-10-24T17:17:28.060Z,18.68
2022-10-24T17:21:29.636Z,18.62
2022-10-24T17:25:31.306Z,18.56
2022-10-24T17:29:33.844Z,18.50
2022-10-24T17:33:37.277Z,18.47
2022-10-24T17:37:57.393Z,18.47
2022-10-24T17:41:59.211Z,18.35
2022-10-24T17:46:01.009Z,18.32
2022-10-24T17:50:02.562Z,18.28
2022-10-24T17:54:05.837Z,18.21
2022-10-24T17:58:07.582Z,18.16
2022-10-24T18:02:13.834Z,18.13
2022-10-24T18:06:16.744Z,18.07
2022-10-24T18:10:18.825Z,18.05
2022-10-24T18:14:20.415Z,18.04
2022-10-24T18:18:22.259Z,18.01
2022-10-24T18:22:23.964Z,18.01
2022-10-24T18:26:27.137Z,17.99
2022-10-24T18:30:28.766Z,17.96
2022-10-24T18:34:30.299Z,17.94
2022-10-24T18:38:36.774Z,17.87
2022-10-24T18:42:47.892Z,17.83
2022-10-24T18:46:51.170Z,17.76
2022-10-24T18:50:52.825Z,17.74
2022-10-24T18:55:18.409Z,17.73
2022-10-24T18:59:21.528Z,17.63
2022-10-24T19:03:37.010Z,17.58
2022-10-24T19:07:38.747Z,17.47
2022-10-24T19:11:40.515Z,17.47
2022-10-24T19:15:46.685Z,17.38
2022-10-24T19:19:48.557Z,17.33
2022-10-24T19:23:50.886Z,17.27
2022-10-24T19:31:58.960Z,17.14
2022-10-24T19:36:05.398Z,17.09
2022-10-24T19:40:07.903Z,17.05
2022-10-24T19:44:09.454Z,17.02
2022-10-24T19:48:12.643Z,17.00
2022-10-24T19:52:14.463Z,16.98
2022-10-24T19:56:25.143Z,16.96
2022-10-24T20:00:27.045Z,16.87
2022-10-24T20:04:30.159Z,16.81
2022-10-24T20:08:31.752Z,16.75
2022-10-24T20:12:33.378Z,16.69
2022-10-24T20:16:35.040Z,16.69
2022-10-24T20:20:36.598Z,16.62
2022-10-24T20:24:38.226Z,16.60
2022-10-24T20:28:43.181Z,16.51
2022-10-24T20:32:44.760Z,16.47
2022-10-24T20:36:47.978Z,16.41
2022-10-24T20:40:49.552Z,16.36
2022-10-24T20:44:51.307Z,16.30
2022-10-24T20:48:53.802Z,16.27
2022-10-24T20:52:55.515Z,16.25
2022-10-24T20:56:57.095Z,16.18
2022-10-24T21:00:58.824Z,16.13
2022-10-24T21:05:00.504Z,16.08
2022-10-24T21:09:04.830Z,15.99
2022-10-24T21:13:06.415Z,15.99
2022-10-24T21:17:08.055Z,15.92
2022-10-24T21:21:11.454Z,15.89
2022-10-24T21:25:12.969Z,15.86
2022-10-24T21:29:32.356Z,15.81
2022-10-24T21:33:35.193Z,15.78
2022-10-24T21:37:36.875Z,15.77
2022-10-24T21:41:38.435Z,15.76
2022-10-24T21:45:40.217Z,15.70
2022-10-24T21:49:41.789Z,15.62
2022-10-24T21:53:46.302Z,15.59
2022-10-24T21:57:47.826Z,15.60
2022-10-24T22:01:51.501Z,15.59
2022-10-24T22:05:54.870Z,15.58
2022-10-24T22:09:56.401Z,15.53
2022-10-24T22:13:58.710Z,15.51
2022-10-24T22:18:00.215Z,15.46
2022-10-24T22:22:01.738Z,15.48
2022-10-24T22:26:03.582Z,15.46
2022-10-24T22:30:05.675Z,15.43
2022-10-24T22:34:07.669Z,15.38
2022-10-24T22:38:09.530Z,15.35
2022-10-24T22:42:14.729Z,15.30
2022-10-24T22:47:10.323Z,15.33
2022-10-24T22:51:16.116Z,15.25
2022-10-24T22:55:24.828Z,15.23
2022-10-24T22:59:26.672Z,15.18
2022-10-24T23:03:40.311Z,15.16
2022-10-24T23:08:03.665Z,15.12
2022-10-24T23:12:13.245Z,15.13
2022-10-24T23:16:50.322Z,15.09
2022-10-24T23:21:02.088Z,15.07
2022-10-24T23:25:03.885Z,15.05
2022-10-24T23:29:31.712Z,15.01
2022-10-24T23:33:33.449Z,14.97
2022-10-24T23:37:41.672Z,14.93
2022-10-24T23:41:43.457Z,14.94
2022-10-24T23:46:02.180Z,14.91
2022-10-24T23:50:09.833Z,14.86
2022-10-24T23:54:12.736Z,14.85
2022-10-24T23:58:14.235Z,14.86
